createdAt,value
2022-12-07T00:01:29.559Z,97084.88
2022-12-07T00:04:01.751Z,97084.34
2022-12-07T00:06:28.710Z,97083.78
2022-12-07T00:08:55.478Z,97083.78
2022-12-07T00:11:23.750Z,97079.50
2022-12-07T00:13:58.708Z,97083.53
2022-12-07T00:16:28.309Z,97077.03
2022-12-07T00:18:55.052Z,97089.09
2022-12-07T00:21:36.919Z,97086.13
2022-12-07T00:24:05.835Z,97092.28
2022-12-07T00:26:38.307Z,97086.66
2022-12-07T00:29:15.775Z,97097.16
2022-12-07T00:31:42.933Z,97086.97
2022-12-07T00:34:18.180Z,97094.00
2022-12-07T00:36:45.104Z,97088.63
2022-12-07T00:39:12.181Z,97087.53
2022-12-07T00:41:38.841Z,97078.91
2022-12-07T00:44:06.039Z,97082.16
2022-12-07T00:46:32.919Z,97089.97
2022-12-07T00:48:59.558Z,97094.00
2022-12-07T00:51:27.139Z,97077.25
2022-12-07T00:53:54.176Z,97084.81
2022-12-07T00:56:23.731Z,97083.44
2022-12-07T00:58:55.602Z,97078.28
2022-12-07T01:01:22.575Z,97084.50
2022-12-07T01:03:50.006Z,97079.13
2022-12-07T01:06:18.486Z,97082.06
2022-12-07T01:08:45.565Z,97086.91
2022-12-07T01:11:19.134Z,97093.38
2022-12-07T01:13:46.168Z,97079.94
2022-12-07T01:16:15.865Z,97080.97
2022-12-07T01:18:43.227Z,97079.94
2022-12-07T01:21:22.455Z,97078.06
2022-12-07T01:23:49.687Z,97079.94
2022-12-07T01:26:19.647Z,97083.16
2022-12-07T01:28:46.860Z,97081.28
2022-12-07T01:31:16.408Z,97086.41
2022-12-07T01:33:48.621Z,97078.34
2022-12-07T01:36:20.937Z,97080.56
2022-12-07T01:38:50.125Z,97077.03
2022-12-07T01:41:17.073Z,97077.88
2022-12-07T01:44:13.526Z,97078.41
2022-12-07T01:46:41.052Z,97070.13
2022-12-07T01:49:11.506Z,97071.97
2022-12-07T01:51:40.416Z,97071.44
2022-12-07T01:54:07.329Z,97062.28
2022-12-07T01:56:34.300Z,97063.91
2022-12-07T01:59:01.742Z,97069.03
2022-12-07T02:01:28.440Z,97067.66
2022-12-07T02:03:55.397Z,97074.91
2022-12-07T02:06:25.746Z,97081.09
2022-12-07T02:08:52.716Z,97075.19
2022-12-07T02:11:20.084Z,97071.09
2022-12-07T02:13:48.451Z,97070.81
2022-12-07T02:16:23.982Z,97073.69
2022-12-07T02:19:21.458Z,97069.63
2022-12-07T02:22:06.406Z,97076.31
2022-12-07T02:24:44.553Z,97068.25
2022-12-07T02:27:17.212Z,97075.78
2022-12-07T02:30:16.228Z,97062.13
2022-12-07T02:33:01.195Z,97072.06
2022-12-07T02:35:33.804Z,97078.25
2022-12-07T02:38:15.272Z,97086.84
2022-12-07T02:40:49.314Z,97076.09
2022-12-07T02:43:45.076Z,97083.59
2022-12-07T02:46:18.972Z,97079.25
2022-12-07T02:48:47.031Z,97073.59
2022-12-07T02:51:13.845Z,97077.28
2022-12-07T02:53:43.562Z,97076.44
2022-12-07T02:56:25.347Z,97076.38
2022-12-07T02:59:19.607Z,97080.41
2022-12-07T03:01:49.227Z,97087.56
2022-12-07T03:04:54.699Z,97076.53
2022-12-07T03:07:33.511Z,97081.06
2022-12-07T03:10:00.634Z,97081.28
2022-12-07T03:12:43.831Z,97078.31
2022-12-07T03:15:23.185Z,97080.44
2022-12-07T03:17:52.105Z,97075.00
2022-12-07T03:20:23.107Z,97073.38
2022-12-07T03:22:52.367Z,97079.25
2022-12-07T03:25:19.672Z,97077.66
2022-12-07T03:27:53.541Z,97077.66
2022-12-07T03:30:23.281Z,97076.84
2022-12-07T03:32:56.967Z,97077.66
2022-12-07T03:35:38.869Z,97072.88
2022-12-07T03:38:20.797Z,97072.88
2022-12-07T03:40:57.591Z,97069.59
2022-12-07T03:43:24.511Z,97078.16
2022-12-07T03:46:11.912Z,97080.59
2022-12-07T03:49:04.874Z,97084.63
2022-12-07T03:51:56.796Z,97076.88
2022-12-07T03:54:40.959Z,97069.16
2022-12-07T03:57:09.788Z,97069.97
2022-12-07T03:59:38.496Z,97070.25
2022-12-07T04:02:08.100Z,97073.50
2022-12-07T04:04:35.571Z,97070.84
2022-12-07T04:07:02.362Z,97077.81
2022-12-07T04:09:29.335Z,97071.38
2022-12-07T04:11:56.042Z,97066.56
2022-12-07T04:14:22.895Z,97061.78
2022-12-07T04:16:54.594Z,97059.34
2022-12-07T04:19:23.859Z,97063.91
2022-12-07T04:21:50.830Z,97068.16
2022-12-07T04:24:17.741Z,97070.84
2022-12-07T04:26:45.271Z,97065.47
2022-12-07T04:29:12.332Z,97073.50
2022-12-07T04:31:39.651Z,97077.81
2022-12-07T04:34:06.604Z,97075.13
2022-12-07T04:36:33.680Z,97078.06
2022-12-07T04:39:00.831Z,97075.88
2022-12-07T04:41:30.209Z,97071.28
2022-12-07T04:44:00.288Z,97068.31
2022-12-07T04:46:28.587Z,97068.53
2022-12-07T04:48:55.919Z,97070.19
2022-12-07T04:51:25.556Z,97066.44
2022-12-07T04:53:52.410Z,97061.59
2022-12-07T04:56:19.941Z,97070.72
2022-12-07T04:58:48.249Z,97068.84
2022-12-07T05:01:16.521Z,97074.47
2022-12-07T05:03:43.337Z,97070.19
2022-12-07T05:06:13.643Z,97070.41
2022-12-07T05:08:41.210Z,97070.91
2022-12-07T05:11:08.923Z,97074.94
2022-12-07T05:13:37.002Z,97078.34
2022-12-07T05:16:04.018Z,97074.31
2022-12-07T05:18:30.714Z,97079.69
2022-12-07T05:20:57.818Z,97080.72
2022-12-07T05:23:24.575Z,97076.44
2022-12-07T05:25:51.319Z,97080.19
2022-12-07T05:28:18.212Z,97081.25
2022-12-07T05:30:44.858Z,97083.97
2022-12-07T05:33:11.479Z,97085.84
2022-12-07T05:35:38.986Z,97085.53
2022-12-07T05:38:05.784Z,97091.91
2022-12-07T05:40:32.483Z,97098.56
2022-12-07T05:43:04.217Z,97095.06
2022-12-07T05:45:31.824Z,97100.19
2022-12-07T05:47:58.559Z,97101.00
2022-12-07T05:50:25.675Z,97104.53
2022-12-07T05:52:52.471Z,97101.63
2022-12-07T05:55:19.368Z,97105.13
2022-12-07T05:58:06.384Z,97102.69
2022-12-07T06:00:33.347Z,97109.41
2022-12-07T06:03:00.313Z,97113.97
2022-12-07T06:05:27.425Z,97107.53
2022-12-07T06:07:54.079Z,97098.38
2022-12-07T06:10:20.840Z,97105.44
2022-12-07T06:12:47.474Z,97110.53
2022-12-07T06:15:14.504Z,97109.72
2022-12-07T06:17:41.526Z,97112.41
2022-12-07T06:20:08.906Z,97110.22
2022-12-07T06:22:35.720Z,97106.69
2022-12-07T06:25:08.163Z,97124.38
2022-12-07T06:27:36.588Z,97123.53
2022-12-07T06:30:07.506Z,97119.16
2022-12-07T06:32:34.940Z,97123.13
2022-12-07T06:35:01.968Z,97131.13
2022-12-07T06:37:28.729Z,97123.50
2022-12-07T06:39:55.326Z,97124.22
2022-12-07T06:42:22.263Z,97123.69
2022-12-07T06:44:49.003Z,97122.31
2022-12-07T06:50:02.916Z,97137.00
2022-12-07T06:52:29.751Z,97137.53
2022-12-07T06:54:56.556Z,97139.69
2022-12-07T06:57:23.810Z,97134.91
2022-12-07T06:59:50.432Z,97141.88
2022-12-07T07:02:17.421Z,97136.03
2022-12-07T07:04:44.189Z,97147.88
2022-12-07T07:07:11.198Z,97134.72
2022-12-07T07:09:37.900Z,97139.28
2022-12-07T07:12:04.790Z,97136.03
2022-12-07T07:14:31.424Z,97139.28
2022-12-07T07:16:58.059Z,97136.34
2022-12-07T07:19:24.863Z,97138.16
2022-12-07T07:21:51.499Z,97142.69
2022-12-07T07:24:18.303Z,97139.94
2022-12-07T07:26:45.053Z,97136.72
2022-12-07T07:29:11.776Z,97140.69
2022-12-07T07:31:38.419Z,97144.44
2022-12-07T07:34:05.648Z,97137.44
2022-12-07T07:36:33.712Z,97141.19
2022-12-07T07:39:00.376Z,97141.97
2022-12-07T07:41:27.615Z,97144.91
2022-12-07T07:43:54.268Z,97148.31
2022-12-07T07:46:20.987Z,97148.56
2022-12-07T07:48:47.955Z,97143.69
2022-12-07T07:51:15.222Z,97136.72
2022-12-07T07:53:41.872Z,97138.84
2022-12-07T07:56:08.965Z,97129.44
2022-12-07T07:58:35.591Z,97137.69
2022-12-07T08:01:07.158Z,97145.75
2022-12-07T08:03:34.341Z,97142.25
2022-12-07T08:06:00.929Z,97140.06
2022-12-07T08:08:27.620Z,97145.25
2022-12-07T08:10:54.473Z,97143.69
2022-12-07T08:13:23.785Z,97144.03
2022-12-07T08:15:54.348Z,97147.34
2022-12-07T08:18:21.095Z,97153.59
2022-12-07T08:20:47.908Z,97163.00
2022-12-07T08:23:14.641Z,97159.59
2022-12-07T08:25:41.461Z,97168.19
2022-12-07T08:28:08.329Z,97163.13
2022-12-07T08:30:35.007Z,97156.72
2022-12-07T08:33:02.024Z,97163.13
2022-12-07T08:35:28.653Z,97164.44
2022-12-07T08:37:55.349Z,97167.69
2022-12-07T08:40:22.349Z,97166.41
2022-12-07T08:42:52.494Z,97154.34
2022-12-07T08:45:26.335Z,97162.00
2022-12-07T08:47:59.958Z,97168.22
2022-12-07T08:50:26.646Z,97170.13
2022-12-07T08:52:56.410Z,97160.31
2022-12-07T08:55:23.622Z,97163.28
2022-12-07T08:57:51.025Z,97159.31
2022-12-07T09:00:17.961Z,97152.63
2022-12-07T09:02:46.009Z,97143.53
2022-12-07T09:05:17.001Z,97147.03
2022-12-07T09:07:47.304Z,97137.88
2022-12-07T09:10:14.072Z,97142.16
2022-12-07T09:12:40.774Z,97146.72
2022-12-07T09:15:09.659Z,97155.38
2022-12-07T09:17:37.098Z,97139.09
2022-12-07T09:20:06.779Z,97138.09
2022-12-07T09:22:34.341Z,97141.56
2022-12-07T09:25:01.531Z,97132.75
2022-12-07T09:27:29.456Z,97128.28
2022-12-07T09:29:57.041Z,97121.59
2022-12-07T09:32:24.209Z,97120.28
2022-12-07T09:34:51.165Z,97112.00
2022-12-07T09:37:18.110Z,97107.72
2022-12-07T09:39:49.654Z,97093.25
2022-12-07T09:42:40.826Z,97094.63
2022-12-07T09:45:13.224Z,97086.59
2022-12-07T09:47:39.924Z,97083.19
2022-12-07T09:50:17.005Z,97094.44
2022-12-07T09:52:46.661Z,97087.78
2022-12-07T09:55:16.420Z,97086.75
2022-12-07T09:57:44.347Z,97093.78
2022-12-07T10:00:17.119Z,97097.34
2022-12-07T10:03:02.753Z,97090.75
2022-12-07T10:05:38.226Z,97097.31
2022-12-07T10:08:05.540Z,97089.91
2022-12-07T10:10:38.291Z,97090.69
2022-12-07T10:13:12.011Z,97091.50
2022-12-07T10:15:46.275Z,97091.00
2022-12-07T10:18:27.513Z,97095.91
2022-12-07T10:21:04.089Z,97094.94
2022-12-07T10:23:31.414Z,97100.38
2022-12-07T10:25:59.833Z,97099.34
2022-12-07T10:28:41.806Z,97100.72
2022-12-07T10:31:24.147Z,97085.16
2022-12-07T10:34:00.197Z,97091.34
2022-12-07T10:36:39.056Z,97078.97
2022-12-07T10:39:19.103Z,97089.25
2022-12-07T10:42:02.113Z,97086.31
2022-12-07T10:44:34.396Z,97081.22
2022-12-07T10:47:37.973Z,97075.81
2022-12-07T10:50:10.619Z,97068.25
2022-12-07T10:52:55.646Z,97078.22
2022-12-07T10:55:38.799Z,97074.19
2022-12-07T10:58:23.795Z,97074.72
2022-12-07T11:01:03.108Z,97071.78
2022-12-07T11:03:54.897Z,97070.41
2022-12-07T11:06:59.200Z,97070.41
2022-12-07T11:10:11.116Z,97071.22
2022-12-07T11:13:00.896Z,97069.88
2022-12-07T11:15:32.810Z,97062.94
2022-12-07T11:18:14.062Z,97056.75
2022-12-07T11:21:04.775Z,97054.03
2022-12-07T11:23:41.672Z,97053.78
2022-12-07T11:27:00.485Z,97051.06
2022-12-07T11:29:37.316Z,97057.50
2022-12-07T11:32:30.710Z,97048.63
2022-12-07T11:35:39.431Z,97053.44
2022-12-07T11:38:26.355Z,97051.56
2022-12-07T11:41:14.083Z,97053.72
2022-12-07T11:44:07.550Z,97048.34
2022-12-07T11:47:02.730Z,97051.03
2022-12-07T11:49:55.258Z,97052.34
2022-12-07T11:52:28.765Z,97042.41
2022-12-07T11:54:55.760Z,97037.81
2022-12-07T11:57:34.832Z,97031.34
2022-12-07T12:00:05.779Z,97038.56
2022-12-07T12:02:47.375Z,97033.16
2022-12-07T12:05:23.671Z,97034.72
2022-12-07T12:11:28.949Z,97021.78
2022-12-07T12:14:41.885Z,97018.22
2022-12-07T12:17:19.243Z,97018.47
2022-12-07T12:20:17.263Z,97019.25
2022-12-07T12:22:49.990Z,97027.59
2022-12-07T12:25:45.429Z,97037.28
2022-12-07T12:28:28.435Z,97030.88
2022-12-07T12:31:29.813Z,97027.16
2022-12-07T12:34:02.350Z,97034.66
2022-12-07T12:36:46.831Z,97038.41
2022-12-07T12:39:17.548Z,97039.22
2022-12-07T12:41:46.930Z,97037.84
2022-12-07T12:44:16.391Z,97031.66
2022-12-07T12:46:51.110Z,97022.75
2022-12-07T12:49:20.689Z,97024.63
2022-12-07T12:51:52.752Z,97023.56
2022-12-07T12:54:19.331Z,97026.00
2022-12-07T12:57:00.091Z,97016.84
2022-12-07T12:59:30.761Z,97019.03
2022-12-07T13:02:21.438Z,97013.13
2022-12-07T13:05:07.317Z,97020.13
2022-12-07T13:07:48.039Z,97018.22
2022-12-07T13:10:33.843Z,97019.03
2022-12-07T13:13:09.008Z,97013.41
2022-12-07T13:15:39.271Z,97020.94
2022-12-07T13:18:24.318Z,97011.50
2022-12-07T13:21:00.186Z,97018.22
2022-12-07T13:23:44.957Z,97017.72
2022-12-07T13:26:24.746Z,97021.22
2022-12-07T13:29:16.448Z,97014.00
2022-12-07T13:32:23.678Z,97017.25
2022-12-07T13:34:50.626Z,97015.91
2022-12-07T13:37:32.474Z,97016.75
2022-12-07T13:40:24.927Z,97017.03
2022-12-07T13:43:02.651Z,97015.16
2022-12-07T13:45:50.760Z,97011.38
2022-12-07T13:48:34.397Z,97029.38
2022-12-07T13:51:04.042Z,97016.75
2022-12-07T13:53:34.218Z,97022.41
2022-12-07T13:56:02.211Z,97025.34
2022-12-07T13:58:32.614Z,97022.91
2022-12-07T14:01:00.249Z,97025.28
2022-12-07T14:03:30.885Z,97012.63
2022-12-07T14:06:16.550Z,97020.94
2022-12-07T14:08:44.469Z,97016.34
2022-12-07T14:11:20.410Z,97011.72
2022-12-07T14:14:01.962Z,97012.00
2022-12-07T14:16:37.978Z,97012.44
2022-12-07T14:19:07.502Z,97013.50
2022-12-07T14:21:35.561Z,97016.69
2022-12-07T14:24:21.290Z,97017.97
2022-12-07T14:26:50.274Z,97017.38
2022-12-07T14:29:26.026Z,97021.09
2022-12-07T14:31:53.805Z,97016.72
2022-12-07T14:34:24.590Z,97014.81
2022-12-07T14:36:51.771Z,97020.09
2022-12-07T14:39:18.590Z,97011.44
2022-12-07T14:41:54.479Z,97017.59
2022-12-07T14:44:26.828Z,97021.31
2022-12-07T14:49:45.170Z,97020.66
2022-12-07T14:55:24.587Z,97023.00
2022-12-07T14:57:51.837Z,97027.28
2022-12-07T15:00:20.512Z,97037.13
2022-12-07T15:02:48.651Z,97031.97
2022-12-07T15:05:16.663Z,97032.72
2022-12-07T15:07:45.146Z,97025.94
2022-12-07T15:10:23.391Z,97024.31
2022-12-07T15:12:51.045Z,97021.25
2022-12-07T15:15:18.602Z,97016.09
2022-12-07T15:17:45.245Z,97015.25
2022-12-07T15:20:20.673Z,97029.13
2022-12-07T15:22:47.286Z,97021.84
2022-12-07T15:25:15.410Z,97027.13
2022-12-07T15:27:43.143Z,97024.19
2022-12-07T15:30:09.992Z,97028.38
2022-12-07T15:32:36.666Z,97024.84
2022-12-07T15:35:04.129Z,97037.66
2022-12-07T15:37:31.063Z,97035.25
2022-12-07T15:40:00.436Z,97039.97
2022-12-07T15:42:29.643Z,97045.28
2022-12-07T15:45:05.479Z,97046.00
2022-12-07T15:47:54.970Z,97037.44
2022-12-07T15:50:22.214Z,97033.53
2022-12-07T15:52:52.253Z,97041.56
2022-12-07T15:55:18.831Z,97043.13
2022-12-07T15:57:45.462Z,97049.75
2022-12-07T16:00:13.067Z,97043.28
2022-12-07T16:02:40.371Z,97048.91
2022-12-07T16:05:07.419Z,97042.41
2022-12-07T16:07:34.143Z,97046.16
2022-12-07T16:10:00.942Z,97044.19
2022-12-07T16:12:27.570Z,97043.38
2022-12-07T16:14:57.550Z,97049.81
2022-12-07T16:17:24.102Z,97048.19
2022-12-07T16:19:51.403Z,97044.88
2022-12-07T16:22:18.873Z,97049.16
2022-12-07T16:24:45.460Z,97058.25
2022-12-07T16:27:12.030Z,97062.47
2022-12-07T16:29:38.944Z,97061.31
2022-12-07T16:32:05.833Z,97066.66
2022-12-07T16:34:33.608Z,97073.34
2022-12-07T16:37:04.987Z,97072.22
2022-12-07T16:39:33.211Z,97080.72
2022-12-07T16:41:59.824Z,97067.81
2022-12-07T16:44:27.683Z,97077.94
2022-12-07T16:46:54.301Z,97075.78
2022-12-07T16:49:21.086Z,97070.91
2022-12-07T16:52:08.627Z,97078.34
2022-12-07T16:54:38.294Z,97077.78
2022-12-07T16:57:05.603Z,97081.75
2022-12-07T16:59:32.608Z,97080.13
2022-12-07T17:01:59.434Z,97083.03
2022-12-07T17:04:26.607Z,97068.78
2022-12-07T17:06:53.447Z,97085.16
2022-12-07T17:09:21.553Z,97075.75
2022-12-07T17:11:48.806Z,97082.16
2022-12-07T17:14:34.043Z,97080.50
2022-12-07T17:17:03.323Z,97079.47
2022-12-07T17:19:30.130Z,97074.34
2022-12-07T17:21:56.773Z,97080.16
2022-12-07T17:24:25.557Z,97091.13
2022-12-07T17:26:52.307Z,97093.00
2022-12-07T17:29:19.806Z,97093.25
2022-12-07T17:31:51.653Z,97098.59
2022-12-07T17:34:19.521Z,97099.06
2022-12-07T17:36:46.463Z,97099.88
2022-12-07T17:39:16.749Z,97105.69
2022-12-07T17:42:01.975Z,97108.28
2022-12-07T17:44:29.535Z,97111.19
2022-12-07T17:46:59.757Z,97107.38
2022-12-07T17:49:27.371Z,97113.50
2022-12-07T17:52:14.939Z,97106.69
2022-12-07T17:54:41.751Z,97099.78
2022-12-07T17:57:10.318Z,97102.66
2022-12-07T17:59:37.255Z,97107.78
2022-12-07T18:02:04.255Z,97106.16
2022-12-07T18:04:31.009Z,97106.41
2022-12-07T18:06:57.859Z,97108.47
2022-12-07T18:09:24.831Z,97112.47
2022-12-07T18:11:51.898Z,97108.41
2022-12-07T18:14:18.626Z,97108.66
2022-12-07T18:16:45.418Z,97107.00
2022-12-07T18:19:14.679Z,97109.34
2022-12-07T18:21:42.861Z,97104.47
2022-12-07T18:24:12.590Z,97105.03
2022-12-07T18:26:39.769Z,97114.34
2022-12-07T18:29:07.783Z,97116.44
2022-12-07T18:31:36.138Z,97122.00
2022-12-07T18:34:05.559Z,97126.78
2022-12-07T18:36:32.415Z,97116.91
2022-12-07T18:38:59.134Z,97120.84
2022-12-07T18:41:25.911Z,97114.69
2022-12-07T18:43:52.759Z,97108.56
2022-12-07T18:46:21.350Z,97110.88
2022-12-07T18:48:50.437Z,97105.31
2022-12-07T18:51:18.569Z,97103.13
2022-12-07T18:53:45.754Z,97110.53
2022-12-07T18:56:21.032Z,97106.25
2022-12-07T18:59:18.195Z,97113.69
2022-12-07T19:01:48.020Z,97112.88
2022-12-07T19:04:15.329Z,97120.06
2022-12-07T19:06:43.620Z,97109.84
2022-12-07T19:09:10.715Z,97107.09
2022-12-07T19:11:49.782Z,97113.47
2022-12-07T19:14:39.811Z,97119.38
2022-12-07T19:17:10.250Z,97118.22
2022-12-07T19:19:42.838Z,97111.97
2022-12-07T19:22:11.222Z,97113.00
2022-12-07T19:24:38.824Z,97113.00
2022-12-07T19:27:07.661Z,97112.53
2022-12-07T19:29:34.833Z,97110.56
2022-12-07T19:32:03.879Z,97121.50
2022-12-07T19:34:30.754Z,97117.19
2022-12-07T19:36:58.693Z,97119.28
2022-12-07T19:39:25.508Z,97127.50
2022-12-07T19:41:52.620Z,97133.66
2022-12-07T19:44:22.825Z,97127.31
2022-12-07T19:46:51.197Z,97126.34
2022-12-07T19:49:19.544Z,97125.09
2022-12-07T19:51:48.658Z,97124.97
2022-12-07T19:54:20.295Z,97116.16
2022-12-07T19:56:47.776Z,97112.31
2022-12-07T19:59:15.918Z,97115.47
2022-12-07T20:01:44.184Z,97114.91
2022-12-07T20:04:16.771Z,97121.38
2022-12-07T20:06:44.343Z,97116.84
2022-12-07T20:09:10.969Z,97122.75
2022-12-07T20:11:56.347Z,97126.47
2022-12-07T20:14:23.727Z,97119.53
2022-12-07T20:16:50.646Z,97121.59
2022-12-07T20:19:17.901Z,97127.75
2022-12-07T20:21:45.690Z,97120.59
2022-12-07T20:24:20.214Z,97126.72
2022-12-07T20:26:51.387Z,97111.16
2022-12-07T20:29:24.211Z,97121.03
2022-12-07T20:31:51.980Z,97113.03
2022-12-07T20:34:19.019Z,97120.22
2022-12-07T20:36:45.839Z,97119.63
2022-12-07T20:39:12.864Z,97118.03
2022-12-07T20:41:58.858Z,97115.56
2022-12-07T20:44:25.990Z,97116.63
2022-12-07T20:46:52.801Z,97117.06
2022-12-07T20:49:19.523Z,97113.84
2022-12-07T20:51:46.863Z,97122.31
2022-12-07T20:54:14.079Z,97120.56
2022-12-07T20:56:40.941Z,97119.63
2022-12-07T20:59:10.766Z,97125.28
2022-12-07T21:01:37.790Z,97123.31
2022-12-07T21:04:04.727Z,97132.38
2022-12-07T21:06:31.610Z,97129.78
2022-12-07T21:09:00.432Z,97137.78
2022-12-07T21:11:29.779Z,97139.66
2022-12-07T21:13:56.657Z,97145.22
2022-12-07T21:16:26.571Z,97146.03
2022-12-07T21:18:55.773Z,97143.81
2022-12-07T21:21:22.808Z,97142.19
2022-12-07T21:23:52.773Z,97144.03
2022-12-07T21:26:26.092Z,97165.16
2022-12-07T21:28:53.032Z,97163.28
2022-12-07T21:31:20.445Z,97167.81
2022-12-07T21:33:47.932Z,97171.06
2022-12-07T21:36:17.615Z,97175.38
2022-12-07T21:38:44.326Z,97177.09
2022-12-07T21:41:17.592Z,97169.78
2022-12-07T21:43:45.232Z,97174.88
2022-12-07T21:46:13.001Z,97182.88
2022-12-07T21:48:40.902Z,97179.19
2022-12-07T21:51:09.597Z,97183.09
2022-12-07T21:53:37.472Z,97178.47
2022-12-07T21:56:04.835Z,97175.78
2022-12-07T21:58:31.569Z,97175.19
2022-12-07T22:00:59.507Z,97175.88
2022-12-07T22:03:26.173Z,97170.31
2022-12-07T22:05:52.854Z,97174.03
2022-12-07T22:08:19.864Z,97170.53
2022-12-07T22:10:46.590Z,97173.41
2022-12-07T22:13:13.322Z,97173.66
2022-12-07T22:15:41.427Z,97173.41
2022-12-07T22:18:08.666Z,97174.25
2022-12-07T22:20:35.927Z,97167.28
2022-12-07T22:23:03.319Z,97165.91
2022-12-07T22:25:30.082Z,97165.31
2022-12-07T22:27:56.851Z,97151.47
2022-12-07T22:30:23.600Z,97168.66
2022-12-07T22:32:50.425Z,97169.09
2022-12-07T22:35:17.544Z,97175.84
2022-12-07T22:37:44.314Z,97166.44
2022-12-07T22:40:12.089Z,97170.34
2022-12-07T22:42:38.753Z,97169.53
2022-12-07T22:45:06.129Z,97167.13
2022-12-07T22:47:33.264Z,97171.28
2022-12-07T22:50:00.483Z,97163.84
2022-12-07T22:52:27.796Z,97171.84
2022-12-07T22:54:55.243Z,97170.00
2022-12-07T22:57:21.907Z,97163.72
2022-12-07T22:59:48.575Z,97178.47
2022-12-07T23:02:15.222Z,97172.16
2022-12-07T23:04:41.982Z,97172.16
2022-12-07T23:07:08.976Z,97163.56
2022-12-07T23:09:35.729Z,97168.91
2022-12-07T23:12:21.288Z,97166.84
2022-12-07T23:14:48.392Z,97165.66
2022-12-07T23:17:15.135Z,97172.59
2022-12-07T23:19:41.966Z,97178.97
2022-12-07T23:22:08.969Z,97171.19
2022-12-07T23:24:35.623Z,97170.63
2022-12-07T23:27:02.276Z,97163.31
2022-12-07T23:29:29.095Z,97172.56
2022-12-07T23:31:56.013Z,97170.41
2022-12-07T23:34:22.847Z,97183.88
2022-12-07T23:36:49.691Z,97168.78
2022-12-07T23:39:16.283Z,97170.41
2022-12-07T23:41:42.876Z,97174.91
2022-12-07T23:44:11.089Z,97177.81
2022-12-07T23:46:37.716Z,97175.84
2022-12-07T23:49:06.206Z,97170.34
2022-12-07T23:51:33.932Z,97179.00
2022-12-07T23:54:01.885Z,97172.50
2022-12-07T23:56:31.264Z,97174.34
2022-12-07T23:58:58.801Z,97174.19
